Time;durP1;ratioP1;P1;durP2;ratioP2;P2;SDS_P1;SDS_P2;PMS_P1;PMS_P2;Temp;Humidity;BMP_temperature;BMP_pressure;BME280_temperature;BME280_humidity;BME280_pressure;Samples;Min_cycle;Max_cycle;Signal;HPM_P1;HPM_P2
2022/05/05 00:00:14;;;;;;;16.67;6.40;;;5.90;99.90;;;;;;5070867;28;20051;-72
2022/05/05 00:02:40;;;;;;;11.63;6.45;;;5.90;99.90;;;;;;5068822;28;20055;-72
2022/05/05 00:05:06;;;;;;;12.18;6.45;;;6.00;99.90;;;;;;5070974;28;20059;-72
2022/05/05 00:07:31;;;;;;;15.77;6.60;;;6.00;99.90;;;;;;5068966;28;20459;-73
2022/05/05 00:09:57;;;;;;;11.30;6.88;;;6.00;99.90;;;;;;5052619;28;20036;-73
2022/05/05 00:15:08;;;;;;;12.73;6.32;;;6.10;99.90;;;;;;5069600;28;20446;-73
2022/05/05 00:17:34;;;;;;;14.48;6.28;;;6.10;99.90;;;;;;5069872;28;20129;-73
2022/05/05 00:20:00;;;;;;;16.08;7.28;;;6.10;99.90;;;;;;5070473;28;20047;-71
2022/05/05 00:22:26;;;;;;;17.50;6.82;;;6.10;99.90;;;;;;5069009;28;20075;-72
2022/05/05 00:24:52;;;;;;;16.00;6.70;;;6.10;99.90;;;;;;5069042;28;20442;-72
2022/05/05 00:27:18;;;;;;;16.85;7.05;;;6.90;99.90;;;;;;5069085;28;20118;-72
2022/05/05 00:29:43;;;;;;;12.43;5.80;;;6.20;99.90;;;;;;5069266;28;20048;-73
2022/05/05 00:32:09;;;;;;;12.63;5.93;;;6.20;99.90;;;;;;5070234;28;20069;-73
2022/05/05 00:34:35;;;;;;;16.40;6.93;;;6.30;99.90;;;;;;5070356;28;20094;-72
2022/05/05 00:37:00;;;;;;;16.92;7.15;;;6.30;99.90;;;;;;5069772;28;20479;-73
2022/05/05 00:39:26;;;;;;;14.15;6.35;;;6.30;99.90;;;;;;5069943;28;20047;-73
2022/05/05 00:41:52;;;;;;;13.70;5.82;;;6.30;99.90;;;;;;5068309;28;20045;-73
2022/05/05 00:44:18;;;;;;;18.92;6.45;;;6.40;99.90;;;;;;5051465;28;20072;-72
2022/05/05 00:46:51;;;;;;;13.38;6.40;;;6.40;99.90;;;;;;5069160;28;20052;-73
2022/05/05 00:49:18;;;;;;;12.85;6.13;;;6.40;99.90;;;;;;5070339;28;20423;-73
2022/05/05 00:51:43;;;;;;;14.27;5.95;;;6.40;99.90;;;;;;5068558;28;20123;-72
2022/05/05 00:54:09;;;;;;;16.55;6.43;;;6.40;99.90;;;;;;5070689;28;20436;-73
2022/05/05 00:56:36;;;;;;;15.02;6.45;;;6.50;99.90;;;;;;5070113;28;20051;-73
2022/05/05 00:59:03;;;;;;;14.52;5.90;;;6.50;99.90;;;;;;5070652;28;20423;-73
2022/05/05 01:01:30;;;;;;;16.27;6.50;;;6.50;99.90;;;;;;5070253;28;20037;-72
2022/05/05 01:03:55;;;;;;;15.23;6.20;;;6.60;99.90;;;;;;5068827;28;20051;-72
2022/05/05 01:06:21;;;;;;;12.73;6.15;;;6.60;99.90;;;;;;5068579;28;20045;-73
2022/05/05 01:08:47;;;;;;;20.08;5.78;;;6.60;99.90;;;;;;5070134;28;20032;-72
2022/05/05 01:11:13;;;;;;;12.93;5.93;;;6.70;99.90;;;;;;5070208;28;20053;-73
2022/05/05 01:13:40;;;;;;;16.13;5.85;;;6.70;99.90;;;;;;5069029;28;20044;-72
2022/05/05 01:16:07;;;;;;;14.95;5.80;;;6.70;99.90;;;;;;5070706;28;20056;-73
2022/05/05 01:18:33;;;;;;;15.35;5.63;;;6.70;99.90;;;;;;5068216;28;20058;-73
2022/05/05 01:20:58;;;;;;;18.60;5.60;;;6.70;99.90;;;;;;5069890;28;20406;-72
2022/05/05 01:23:24;;;;;;;17.42;5.95;;;6.80;99.90;;;;;;5070117;28;20044;-71
2022/05/05 01:28:39;;;;;;;14.25;5.35;;;6.80;99.90;;;;;;5059704;28;20488;-72
2022/05/05 01:31:07;;;;;;;12.65;5.20;;;6.80;99.90;;;;;;5048701;28;20052;-73
2022/05/05 01:33:33;;;;;;;14.00;5.53;;;6.90;99.90;;;;;;5049657;28;20514;-72
2022/05/05 01:35:59;;;;;;;14.15;5.82;;;6.90;99.90;;;;;;5053069;28;20044;-71
2022/05/05 01:38:30;;;;;;;15.85;5.68;;;6.90;99.90;;;;;;5069977;28;20051;-72
2022/05/05 01:40:56;;;;;;;10.63;5.28;;;6.90;99.90;;;;;;5070028;28;20080;-73
2022/05/05 01:43:21;;;;;;;12.10;5.97;;;6.90;99.90;;;;;;5068830;28;20146;-72
2022/05/05 01:45:47;;;;;;;12.95;6.00;;;7.00;99.90;;;;;;5068466;28;20443;-72
2022/05/05 01:48:13;;;;;;;16.77;6.88;;;7.00;99.90;;;;;;5051086;28;20049;-73
2022/05/05 01:50:39;;;;;;;13.10;5.65;;;7.00;99.90;;;;;;5068350;28;20086;-73
2022/05/05 01:53:05;;;;;;;12.80;5.57;;;7.00;99.90;;;;;;5070349;28;20036;-73
2022/05/05 01:55:32;;;;;;;14.88;5.70;;;7.00;99.90;;;;;;5069741;28;20052;-73
2022/05/05 01:57:58;;;;;;;13.13;5.75;;;7.00;99.90;;;;;;5073578;28;20457;-73
2022/05/05 02:00:25;;;;;;;12.48;5.25;;;7.00;99.90;;;;;;5072834;28;20056;-71
2022/05/05 02:02:50;;;;;;;16.60;5.85;;;7.10;99.90;;;;;;5069542;28;20044;-73
2022/05/05 02:05:16;;;;;;;14.00;6.10;;;7.10;99.90;;;;;;5071709;28;20049;-73
2022/05/05 02:07:43;;;;;;;16.45;5.68;;;7.00;99.90;;;;;;5072026;28;20450;-73
2022/05/05 02:10:14;;;;;;;11.48;5.50;;;7.10;99.90;;;;;;5073144;28;20436;-71
2022/05/05 02:12:40;;;;;;;15.07;6.70;;;7.10;99.90;;;;;;5063801;28;20047;-71
2022/05/05 02:15:08;;;;;;;13.20;6.47;;;7.00;99.90;;;;;;5070288;28;20059;-71
2022/05/05 02:17:34;;;;;;;15.43;5.85;;;7.10;99.90;;;;;;5070803;28;20048;-70
2022/05/05 02:20:00;;;;;;;16.52;6.35;;;7.10;99.90;;;;;;5071338;28;20080;-72
2022/05/05 02:22:27;;;;;;;13.35;5.50;;;7.00;99.90;;;;;;5072445;28;20041;-73
2022/05/05 02:24:53;;;;;;;16.02;5.70;;;7.10;99.90;;;;;;5073186;28;20405;-71
2022/05/05 02:27:19;;;;;;;14.88;5.63;;;7.00;99.90;;;;;;5059448;28;20052;-73
2022/05/05 02:29:46;;;;;;;14.93;6.05;;;7.30;99.90;;;;;;5038088;28;20033;-73
2022/05/05 02:32:12;;;;;;;11.95;5.43;;;7.00;99.90;;;;;;5053844;28;20431;-73
2022/05/05 02:34:38;;;;;;;12.13;5.53;;;7.00;99.90;;;;;;5053537;28;20313;-72
2022/05/05 02:39:48;;;;;;;18.60;7.10;;;7.00;99.90;;;;;;5066123;28;20088;-73
2022/05/05 02:42:15;;;;;;;12.10;5.47;;;7.00;99.90;;;;;;5066593;28;20083;-72
2022/05/05 02:44:41;;;;;;;14.02;5.10;;;6.90;99.90;;;;;;5072376;28;20064;-72
2022/05/05 02:47:06;;;;;;;14.18;6.10;;;6.80;99.90;;;;;;5071276;28;20486;-73
2022/05/05 02:49:32;;;;;;;11.95;5.70;;;6.70;99.90;;;;;;5072106;28;20059;-73
2022/05/05 02:51:58;;;;;;;9.88;5.97;;;6.70;99.90;;;;;;5071556;28;20063;-73
2022/05/05 02:57:07;;;;;;;10.95;5.88;;;6.70;99.90;;;;;;5068252;28;20415;-72
2022/05/05 02:59:33;;;;;;;11.73;5.70;;;6.60;99.90;;;;;;5050894;28;20053;-72
2022/05/05 03:01:59;;;;;;;18.85;6.13;;;6.60;99.90;;;;;;5057321;28;20499;-73
2022/05/05 03:04:24;;;;;;;13.05;6.07;;;6.60;99.90;;;;;;5055811;28;20131;-72
2022/05/05 03:06:50;;;;;;;13.85;6.35;;;6.60;99.90;;;;;;5071880;28;20123;-73
2022/05/05 03:09:15;;;;;;;13.65;6.32;;;6.50;99.90;;;;;;5071027;28;20040;-73
2022/05/05 03:11:41;;;;;;;13.05;6.18;;;6.50;99.90;;;;;;5063149;28;20044;-72
2022/05/05 03:14:06;;;;;;;17.27;6.68;;;6.40;99.90;;;;;;5072074;28;20396;-73
2022/05/05 03:16:32;;;;;;;11.52;5.60;;;6.40;99.90;;;;;;5071564;28;20158;-73
2022/05/05 03:18:58;;;;;;;13.52;6.45;;;6.40;99.90;;;;;;5072486;28;20048;-73
2022/05/05 03:21:23;;;;;;;18.30;5.88;;;6.30;99.90;;;;;;5071559;28;20109;-70
2022/05/05 03:23:49;;;;;;;16.20;6.28;;;6.30;99.90;;;;;;5062088;28;20515;-73
2022/05/05 03:26:14;;;;;;;14.25;6.82;;;6.30;99.90;;;;;;5052094;28;20033;-73
2022/05/05 03:28:40;;;;;;;13.60;5.97;;;6.20;99.90;;;;;;5068383;28;20048;-72
2022/05/05 03:31:06;;;;;;;15.93;5.68;;;6.20;99.90;;;;;;5070775;28;20045;-73
2022/05/05 03:33:32;;;;;;;14.80;5.85;;;6.20;99.90;;;;;;5071732;28;20041;-73
2022/05/05 03:35:58;;;;;;;16.95;5.88;;;6.20;99.90;;;;;;5070590;28;20487;-72
2022/05/05 03:38:24;;;;;;;11.80;5.80;;;6.20;99.90;;;;;;5069974;28;20048;-71
2022/05/05 03:40:51;;;;;;;17.77;6.22;;;6.20;99.90;;;;;;5071378;28;20369;-72
2022/05/05 03:43:17;;;;;;;14.13;6.18;;;6.20;99.90;;;;;;5057479;28;20048;-73
2022/05/05 03:45:43;;;;;;;11.10;6.65;;;6.20;99.90;;;;;;5068139;28;20028;-73
2022/05/05 03:48:09;;;;;;;14.98;6.18;;;6.20;99.90;;;;;;5071169;28;20487;-73
2022/05/05 03:50:35;;;;;;;12.85;6.05;;;6.10;99.90;;;;;;5071805;28;20557;-71
2022/05/05 03:53:00;;;;;;;15.73;6.35;;;6.10;99.90;;;;;;5069916;28;20480;-72
2022/05/05 03:55:28;;;;;;;15.65;7.40;;;6.20;99.90;;;;;;5070798;28;20036;-73
2022/05/05 03:57:53;;;;;;;19.92;6.60;;;6.20;99.90;;;;;;5069488;28;20109;-71
2022/05/05 04:00:20;;;;;;;12.98;6.40;;;6.20;99.90;;;;;;5069949;28;20052;-71
2022/05/05 04:03:30;;;;;;;11.10;6.65;;;6.20;99.90;;;;;;5070963;28;20472;-73
2022/05/05 04:05:31;;;;;;;20.25;6.32;;;6.10;99.90;;;;;;5069932;28;20063;-73
2022/05/05 04:07:57;;;;;;;12.93;6.15;;;6.10;99.90;;;;;;5069180;28;20109;-72
2022/05/05 04:10:23;;;;;;;13.60;5.95;;;6.20;99.90;;;;;;5069178;28;20051;-73
2022/05/05 04:12:48;;;;;;;16.20;6.30;;;6.20;99.90;;;;;;5050937;28;20408;-72
2022/05/05 04:15:14;;;;;;;19.88;7.45;;;6.30;99.90;;;;;;5063730;28;20048;-73
2022/05/05 04:17:39;;;;;;;14.38;6.82;;;6.30;99.90;;;;;;5068677;28;20406;-72
2022/05/05 04:20:05;;;;;;;15.23;7.22;;;6.30;99.90;;;;;;5069155;28;20562;-73
2022/05/05 04:22:31;;;;;;;16.13;7.07;;;6.40;99.90;;;;;;5069078;28;20044;-73
2022/05/05 04:24:56;;;;;;;12.23;7.05;;;6.40;99.90;;;;;;5070863;28;20036;-72
2022/05/05 04:27:22;;;;;;;13.57;6.90;;;6.40;99.90;;;;;;5070678;28;20434;-73
2022/05/05 04:29:48;;;;;;;10.02;6.13;;;6.40;99.90;;;;;;5068928;28;20052;-73
2022/05/05 04:32:14;;;;;;;15.50;7.20;;;6.50;99.90;;;;;;5069053;28;20437;-73
2022/05/05 04:34:40;;;;;;;14.43;7.07;;;6.50;99.90;;;;;;5070310;28;20048;-72
2022/05/05 04:37:06;;;;;;;12.73;6.93;;;6.50;99.90;;;;;;5070101;28;20053;-73
2022/05/05 04:39:31;;;;;;;10.82;6.47;;;6.50;99.90;;;;;;5070178;28;20051;-71
2022/05/05 04:41:57;;;;;;;11.52;6.93;;;6.60;99.90;;;;;;5068767;28;20040;-73
2022/05/05 04:44:23;;;;;;;13.45;6.85;;;6.60;99.90;;;;;;5068451;28;20044;-72
2022/05/05 04:46:49;;;;;;;16.42;8.05;;;7.30;99.90;;;;;;5070308;28;20040;-73
2022/05/05 04:49:15;;;;;;;14.88;7.68;;;6.70;99.90;;;;;;5069011;28;20136;-72
2022/05/05 04:51:40;;;;;;;14.80;7.40;;;6.70;99.90;;;;;;5070169;28;20052;-73
2022/05/05 04:54:06;;;;;;;19.80;7.15;;;6.70;99.90;;;;;;5068773;28;20154;-73
2022/05/05 04:56:31;;;;;;;14.23;7.35;;;6.70;99.90;;;;;;5068676;28;20052;-73
2022/05/05 04:58:57;;;;;;;16.45;7.07;;;6.80;99.90;;;;;;5068906;28;20052;-73
2022/05/05 05:01:23;;;;;;;18.40;7.72;;;6.80;99.90;;;;;;5070027;28;20486;-73
2022/05/05 05:03:48;;;;;;;12.55;7.43;;;6.90;99.90;;;;;;5055413;28;20422;-72
2022/05/05 05:06:14;;;;;;;16.30;7.50;;;6.90;99.90;;;;;;5070192;28;20041;-72
2022/05/05 05:08:40;;;;;;;14.80;8.05;;;6.90;99.90;;;;;;5068684;28;20059;-72
2022/05/05 05:11:05;;;;;;;16.75;7.10;;;7.00;99.90;;;;;;5069029;28;20051;-73
2022/05/05 05:13:31;;;;;;;15.88;7.70;;;7.00;99.90;;;;;;5065811;28;20048;-73
2022/05/05 05:15:57;;;;;;;14.90;6.90;;;7.10;99.90;;;;;;5063607;28;20061;-70
2022/05/05 05:18:22;;;;;;;13.93;7.20;;;7.10;99.90;;;;;;5069397;28;20044;-73
2022/05/05 05:20:48;;;;;;;15.70;7.55;;;7.20;99.90;;;;;;5070079;28;20052;-73
2022/05/05 05:23:14;;;;;;;17.17;8.00;;;7.20;99.90;;;;;;5070223;28;20044;-73
2022/05/05 05:25:39;;;;;;;13.70;7.45;;;7.20;99.90;;;;;;5065985;28;20530;-72
2022/05/05 05:28:05;;;;;;;14.65;7.13;;;7.30;99.90;;;;;;5072294;28;20044;-73
2022/05/05 05:30:31;;;;;;;13.70;6.25;;;7.40;99.90;;;;;;5073985;28;20395;-72
2022/05/05 05:32:57;;;;;;;15.23;7.50;;;7.40;99.90;;;;;;5072752;28;20054;-74
2022/05/05 05:35:23;;;;;;;11.63;6.40;;;7.50;99.90;;;;;;5072097;28;20369;-71
2022/05/05 05:37:51;;;;;;;11.95;6.70;;;7.50;99.90;;;;;;5072587;28;20209;-73
2022/05/05 05:40:17;;;;;;;18.92;6.65;;;7.60;99.90;;;;;;5073123;28;20123;-71
2022/05/05 05:42:42;;;;;;;14.13;6.70;;;7.70;99.90;;;;;;5074146;28;20132;-72
2022/05/05 05:45:09;;;;;;;16.40;7.63;;;7.70;99.90;;;;;;5072352;28;20131;-73
2022/05/05 05:47:34;;;;;;;16.00;6.97;;;7.80;99.90;;;;;;5073380;28;20044;-73
2022/05/05 05:50:00;;;;;;;15.60;7.25;;;7.90;99.90;;;;;;5073433;28;20063;-73
2022/05/05 05:52:26;;;;;;;13.35;6.63;;;7.90;99.90;;;;;;5072565;28;20048;-73
2022/05/05 05:54:51;;;;;;;18.00;7.53;;;8.50;99.90;;;;;;5072480;28;20491;-74
2022/05/05 05:57:17;;;;;;;15.25;7.68;;;8.10;99.90;;;;;;5073521;28;20044;-73
2022/05/05 05:59:42;;;;;;;15.32;7.28;;;8.20;99.90;;;;;;5073683;28;20055;-72
2022/05/05 06:04:52;;;;;;;19.30;7.50;;;8.30;99.90;;;;;;5073307;28;20048;-74
2022/05/05 06:07:18;;;;;;;17.92;6.82;;;8.40;99.90;;;;;;5071920;28;20517;-73
2022/05/05 06:09:43;;;;;;;14.10;6.97;;;8.90;99.90;;;;;;5072283;28;20040;-73
2022/05/05 06:12:09;;;;;;;24.58;7.57;;;8.60;99.90;;;;;;5068616;28;20040;-72
2022/05/05 06:14:35;;;;;;;17.40;6.82;;;8.60;99.90;;;;;;5071931;28;20590;-74
2022/05/05 06:17:01;;;;;;;13.15;7.03;;;8.80;99.90;;;;;;5072338;28;20090;-74
2022/05/05 06:19:26;;;;;;;14.45;6.88;;;8.90;99.90;;;;;;5072817;28;20496;-73
2022/05/05 06:21:52;;;;;;;15.90;8.30;;;8.90;99.90;;;;;;5073075;28;20056;-74
2022/05/05 06:24:17;;;;;;;11.90;7.15;;;9.00;99.90;;;;;;5072712;28;20047;-74
2022/05/05 06:26:43;;;;;;;15.10;7.25;;;9.10;99.90;;;;;;5073010;28;20674;-73
2022/05/05 06:29:09;;;;;;;18.50;6.72;;;9.10;99.90;;;;;;5071080;28;20040;-74
2022/05/05 06:31:34;;;;;;;18.73;7.32;;;9.30;99.90;;;;;;5073039;28;20048;-74
2022/05/05 06:34:00;;;;;;;26.13;7.90;;;9.40;99.90;;;;;;5072777;28;20400;-73
2022/05/05 06:36:26;;;;;;;15.98;7.15;;;9.40;99.90;;;;;;5072962;28;20123;-73
2022/05/05 06:38:52;;;;;;;18.33;7.30;;;9.50;99.90;;;;;;5071672;28;20070;-74
2022/05/05 06:41:18;;;;;;;14.98;8.77;;;9.50;99.90;;;;;;5071715;28;20044;-74
2022/05/05 06:43:43;;;;;;;15.43;7.00;;;9.70;99.90;;;;;;5071333;28;20384;-73
2022/05/05 06:46:09;;;;;;;22.27;7.75;;;9.70;99.90;;;;;;5070999;28;20068;-74
2022/05/05 06:48:35;;;;;;;20.45;6.97;;;9.80;99.90;;;;;;5072488;28;20393;-73
2022/05/05 06:51:01;;;;;;;14.35;7.22;;;10.20;99.90;;;;;;5072143;28;20498;-75
2022/05/05 06:53:27;;;;;;;14.55;7.22;;;10.30;99.90;;;;;;5071556;28;20118;-74
2022/05/05 06:55:55;;;;;;;17.70;8.43;;;10.40;99.90;;;;;;5071822;28;20036;-74
2022/05/05 06:58:22;;;;;;;20.60;7.13;;;10.30;99.90;;;;;;5070935;28;20055;-73
2022/05/05 07:03:32;;;;;;;15.32;6.57;;;10.40;99.90;;;;;;5071182;28;20377;-74
2022/05/05 07:05:58;;;;;;;18.35;6.88;;;10.50;99.90;;;;;;5072285;28;20063;-73
2022/05/05 07:08:24;;;;;;;13.95;7.35;;;10.90;99.90;;;;;;5071038;28;20181;-72
2022/05/05 07:10:52;;;;;;;16.27;6.90;;;10.80;99.90;;;;;;5070219;28;20125;-74
2022/05/05 07:13:19;;;;;;;19.10;7.35;;;11.10;99.90;;;;;;5072253;28;20119;-75
2022/05/05 07:15:45;;;;;;;15.35;7.13;;;11.00;99.90;;;;;;5066923;28;20488;-73
2022/05/05 07:18:10;;;;;;;24.63;8.15;;;11.30;99.90;;;;;;5070498;28;20049;-73
2022/05/05 07:20:36;;;;;;;16.83;6.65;;;11.40;99.90;;;;;;5064589;28;20053;-73
2022/05/05 07:23:02;;;;;;;18.27;7.65;;;11.30;99.90;;;;;;5052212;28;20044;-74
2022/05/05 07:25:27;;;;;;;19.67;6.97;;;11.70;99.90;;;;;;5050568;28;20400;-75
2022/05/05 07:27:53;;;;;;;18.52;6.70;;;11.60;99.90;;;;;;5052048;28;20884;-75
2022/05/05 07:30:19;;;;;;;18.55;6.63;;;11.70;99.90;;;;;;5064074;28;20127;-75
2022/05/05 07:32:45;;;;;;;17.15;7.07;;;11.90;99.90;;;;;;5071502;28;20083;-74
2022/05/05 07:35:11;;;;;;;16.48;6.60;;;11.80;99.90;;;;;;5070770;28;20080;-74
2022/05/05 07:37:38;;;;;;;15.93;6.15;;;12.30;99.90;;;;;;5070856;28;20088;-75
2022/05/05 07:40:04;;;;;;;14.75;6.72;;;12.00;99.90;;;;;;5054710;28;20061;-76
2022/05/05 07:42:30;;;;;;;15.05;6.53;;;12.10;99.90;;;;;;5051777;28;20132;-73
2022/05/05 07:44:56;;;;;;;14.60;6.20;;;12.20;99.90;;;;;;5051764;28;20132;-76
2022/05/05 07:47:21;;;;;;;18.30;6.78;;;12.30;99.90;;;;;;5051561;28;20455;-76
2022/05/05 07:49:47;;;;;;;11.10;5.80;;;12.40;99.90;;;;;;5055301;28;20051;-74
2022/05/05 07:52:13;;;;;;;15.43;5.15;;;12.80;99.90;;;;;;5071298;28;20044;-76
2022/05/05 07:54:39;;;;;;;15.77;6.28;;;12.70;99.90;;;;;;5071408;28;20110;-74
2022/05/05 07:57:11;;;;;;;14.68;6.40;;;12.60;99.90;;;;;;5071213;28;20055;-74
2022/05/05 07:59:38;;;;;;;11.85;5.45;;;12.60;99.90;;;;;;5068783;28;20561;-75
2022/05/05 08:02:05;;;;;;;15.55;6.15;;;12.70;99.90;;;;;;5066205;28;20071;-76
2022/05/05 08:04:31;;;;;;;18.13;7.20;;;12.70;99.90;;;;;;5049887;28;20107;-73
2022/05/05 08:06:57;;;;;;;16.52;6.85;;;12.90;99.90;;;;;;5055422;28;20124;-74
2022/05/05 08:09:23;;;;;;;11.60;6.45;;;13.10;99.90;;;;;;5051264;28;20116;-75
2022/05/05 08:11:48;;;;;;;16.02;7.03;;;13.20;99.90;;;;;;5049784;28;20075;-74
2022/05/05 08:14:14;;;;;;;17.40;6.57;;;13.30;99.90;;;;;;5049933;28;20500;-74
2022/05/05 08:16:39;;;;;;;16.00;7.03;;;13.30;99.90;;;;;;5049628;28;20040;-72
2022/05/05 08:19:06;;;;;;;14.88;7.40;;;13.40;99.90;;;;;;5058306;28;20139;-73
2022/05/05 08:21:32;;;;;;;11.73;6.70;;;13.50;99.90;;;;;;5070767;28;20064;-74
2022/05/05 08:29:27;;;;;;;13.50;7.13;;;13.70;99.90;;;;;;5050689;28;20099;-76
2022/05/05 08:31:53;;;;;;;18.38;6.07;;;14.00;99.90;;;;;;5051860;28;20056;-75
2022/05/05 08:34:19;;;;;;;15.88;4.85;;;14.10;99.90;;;;;;5058810;28;20048;-76
2022/05/05 08:36:45;;;;;;;16.02;5.03;;;14.20;99.90;;;;;;5070839;28;20391;-74
2022/05/05 08:39:11;;;;;;;11.85;5.25;;;14.40;99.90;;;;;;5070556;28;20051;-74
2022/05/05 08:41:40;;;;;;;18.15;5.20;;;14.70;99.90;;;;;;5067235;28;20116;-74
2022/05/05 08:44:07;;;;;;;18.52;5.55;;;14.70;99.90;;;;;;5061334;28;20585;-76
2022/05/05 08:46:34;;;;;;;14.43;5.88;;;14.90;99.90;;;;;;5049387;28;20075;-76
2022/05/05 08:49:07;;;;;;;13.48;6.18;;;15.10;99.90;;;;;;5050271;28;20456;-75
2022/05/05 08:51:44;;;;;;;16.02;5.05;;;15.20;99.90;;;;;;5049119;28;20045;-76
2022/05/05 08:54:18;;;;;;;12.70;5.03;;;15.30;99.90;;;;;;5050489;28;20454;-73
2022/05/05 08:56:48;;;;;;;13.68;5.65;;;15.40;99.90;;;;;;5050470;28;20379;-75
2022/05/05 08:59:17;;;;;;;13.88;4.38;;;15.40;99.90;;;;;;5050311;28;20071;-76
2022/05/05 09:01:44;;;;;;;13.85;4.82;;;15.60;99.90;;;;;;5050208;28;20077;-75
2022/05/05 09:04:10;;;;;;;10.35;3.80;;;15.60;99.90;;;;;;5050327;28;20088;-75
2022/05/05 09:06:46;;;;;;;15.32;5.55;;;15.80;99.90;;;;;;5049296;28;20041;-76
2022/05/05 09:09:32;;;;;;;10.40;5.38;;;15.90;99.90;;;;;;5050258;28;20056;-77
2022/05/05 09:12:07;;;;;;;13.95;5.82;;;16.20;99.90;;;;;;5050297;28;20064;-75
2022/05/05 09:14:44;;;;;;;18.48;5.78;;;16.40;99.90;;;;;;5050083;28;20443;-77
2022/05/05 09:17:17;;;;;;;13.75;5.97;;;16.60;99.90;;;;;;5049059;28;20460;-76
2022/05/05 09:19:53;;;;;;;15.60;6.00;;;16.60;99.90;;;;;;5050312;28;20120;-76
2022/05/05 09:22:21;;;;;;;11.18;5.55;;;16.90;99.90;;;;;;5048962;28;20132;-76
2022/05/05 09:24:51;;;;;;;15.48;6.65;;;17.00;99.90;;;;;;5050497;28;20049;-77
2022/05/05 09:27:28;;;;;;;9.57;5.68;;;17.30;99.90;;;;;;5049189;28;20045;-77
2022/05/05 09:30:04;;;;;;;9.45;5.82;;;17.50;99.90;;;;;;5049924;28;20045;-76
2022/05/05 09:32:31;;;;;;;11.52;6.25;;;17.70;99.90;;;;;;5049936;28;20063;-76
2022/05/05 09:34:58;;;;;;;13.52;5.95;;;17.90;99.90;;;;;;5057047;28;20453;-76
2022/05/05 09:37:24;;;;;;;13.52;5.95;;;18.20;99.90;;;;;;5061139;28;20055;-75
2022/05/05 09:39:55;;;;;;;14.02;5.43;;;18.20;99.90;;;;;;5068617;28;20053;-76
2022/05/05 09:42:34;;;;;;;11.15;5.97;;;18.20;99.90;;;;;;5065705;28;20061;-76
2022/05/05 09:45:13;;;;;;;15.13;6.30;;;18.40;99.90;;;;;;5050139;28;20170;-74
2022/05/05 09:47:41;;;;;;;11.73;5.97;;;18.40;99.90;;;;;;5049927;28;20128;-75
2022/05/05 09:50:08;;;;;;;13.98;6.38;;;18.50;99.90;;;;;;5048542;28;20067;-80
2022/05/05 09:58:12;;;;;;;13.40;6.18;;;18.70;99.90;;;;;;5048407;28;20052;-78
2022/05/05 10:00:45;;;;;;;12.45;6.18;;;19.00;99.90;;;;;;5050836;28;20049;-78
2022/05/05 10:06:31;;;;;;;11.80;6.03;;;19.20;99.90;;;;;;5049762;28;20515;-76
2022/05/05 10:09:03;;;;;;;12.50;6.07;;;19.40;99.90;;;;;;5049413;28;20049;-77
2022/05/05 10:11:29;;;;;;;8.40;6.38;;;19.30;99.50;;;;;;5055929;28;20098;-78
2022/05/05 10:13:56;;;;;;;11.45;5.20;;;19.20;99.90;;;;;;5071157;28;20435;-78
2022/05/05 10:16:23;;;;;;;9.50;5.38;;;19.30;99.90;;;;;;5071732;28;20045;-76
2022/05/05 10:18:50;;;;;;;13.10;5.68;;;19.40;99.50;;;;;;5073217;28;20048;-77
2022/05/05 10:21:44;;;;;;;7.90;5.38;;;19.40;99.90;;;;;;5072792;28;20048;-75
2022/05/05 10:24:22;;;;;;;11.30;5.97;;;19.50;99.70;;;;;;5053372;28;20083;-74
2022/05/05 10:26:56;;;;;;;10.50;6.05;;;19.50;98.80;;;;;;5053358;28;20458;-79
2022/05/05 10:29:41;;;;;;;10.02;5.70;;;19.50;99.20;;;;;;5052918;28;20061;-81
2022/05/05 10:32:06;;;;;;;;;;;19.40;99.00;;;;;;5053526;28;20181;-80
2022/05/05 10:34:33;;;;;;;10.20;6.05;;;19.30;98.90;;;;;;5051659;28;20007;-78
2022/05/05 10:37:02;;;;;;;8.35;6.22;;;19.20;99.90;;;;;;5053232;28;20181;-78
2022/05/05 10:39:58;;;;;;;9.48;6.28;;;19.10;99.40;;;;;;5053044;28;20053;-77
2022/05/05 10:42:31;;;;;;;15.73;6.63;;;19.30;99.30;;;;;;5053066;28;20053;-78
2022/05/05 10:45:09;;;;;;;14.18;6.57;;;19.40;99.90;;;;;;5051484;28;20130;-78
2022/05/05 10:48:06;;;;;;;13.23;6.70;;;19.60;99.80;;;;;;5052856;28;20694;-78
2022/05/05 10:51:04;;;;;;;12.15;6.47;;;19.70;99.90;;;;;;5052764;28;20067;-78
2022/05/05 10:53:40;;;;;;;9.13;6.15;;;19.80;99.70;;;;;;5053718;28;20044;-77
2022/05/05 10:56:31;;;;;;;15.60;7.00;;;19.70;98.60;;;;;;5052501;28;20108;-80
2022/05/05 10:59:05;;;;;;;8.98;6.03;;;19.80;99.30;;;;;;5052691;28;20091;-76
2022/05/05 11:01:56;;;;;;;11.02;6.43;;;19.80;98.60;;;;;;5052388;28;20049;-78
2022/05/05 11:04:30;;;;;;;11.50;5.80;;;20.10;99.20;;;;;;5052432;28;20124;-77
2022/05/05 11:07:23;;;;;;;10.23;5.75;;;20.20;99.50;;;;;;5052496;28;20095;-78
2022/05/05 11:09:49;;;;;;;9.25;6.15;;;20.10;99.30;;;;;;5051075;28;20060;-79
2022/05/05 11:12:24;;;;;;;14.25;6.75;;;20.00;99.40;;;;;;5059711;28;20048;-77
2022/05/05 11:23:26;;;;;;;14.30;5.93;;;20.20;99.30;;;;;;5051910;28;20085;-76
2022/05/05 11:25:54;;;;;;;9.60;5.95;;;20.20;98.60;;;;;;5061528;28;20079;-79
2022/05/05 11:28:20;;;;;;;10.85;5.75;;;20.40;97.20;;;;;;5070293;28;20052;-76
2022/05/05 11:30:46;;;;;;;11.18;5.97;;;20.50;97.90;;;;;;5070982;28;20109;-79
2022/05/05 11:33:13;;;;;;;10.43;5.90;;;20.50;96.50;;;;;;5071661;28;20492;-77
2022/05/05 11:35:38;;;;;;;8.45;5.80;;;20.70;97.90;;;;;;5072044;28;20106;-79
2022/05/05 11:38:09;;;;;;;7.45;5.57;;;20.70;97.30;;;;;;5071658;28;20052;-78
2022/05/05 11:40:37;;;;;;;11.15;6.43;;;21.10;97.80;;;;;;5070724;28;20113;-75
2022/05/05 11:45:56;;;;;;;10.95;6.80;;;21.40;96.60;;;;;;5071857;28;20052;-77
2022/05/05 11:48:22;;;;;;;14.63;6.07;;;21.40;97.20;;;;;;5069772;28;20052;-79
2022/05/05 11:50:47;;;;;;;8.07;5.63;;;21.50;96.70;;;;;;5070305;28;20079;-79
2022/05/05 11:53:15;;;;;;;9.57;6.38;;;21.80;95.80;;;;;;5070037;28;20071;-80
2022/05/05 11:55:44;;;;;;;9.05;6.10;;;21.80;97.00;;;;;;5063363;28;20090;-84
2022/05/05 12:01:36;;;;;;;11.95;5.97;;;22.00;97.10;;;;;;5051598;28;20048;-87
2022/05/05 12:03:58;;;;;;;10.35;6.65;;;22.00;96.20;;;;;;5059340;28;20067;-85
2022/05/05 12:06:25;;;;;;;11.75;6.50;;;22.20;95.40;;;;;;5071261;28;20056;-84
2022/05/05 12:08:51;;;;;;;12.75;6.40;;;22.00;94.50;;;;;;5071264;28;20052;-75
2022/05/05 12:11:16;;;;;;;15.30;7.00;;;22.20;94.90;;;;;;5071362;28;20052;-78
2022/05/05 12:13:42;;;;;;;10.98;6.38;;;22.30;94.20;;;;;;5061591;28;20041;-79
2022/05/05 12:16:10;;;;;;;8.75;6.47;;;22.30;93.70;;;;;;5050119;28;20045;-79
2022/05/05 12:18:52;;;;;;;9.07;5.70;;;22.00;94.40;;;;;;5050673;28;20041;-78
2022/05/05 12:21:22;;;;;;;8.85;5.07;;;22.00;93.70;;;;;;5049788;28;20041;-79
2022/05/05 12:24:03;;;;;;;7.03;4.40;;;21.90;94.10;;;;;;5050983;28;20048;-79
2022/05/05 12:26:38;;;;;;;8.85;5.43;;;22.00;93.60;;;;;;5051300;28;20053;-80
2022/05/05 12:29:15;;;;;;;8.25;5.13;;;22.50;93.80;;;;;;5051072;28;20041;-80
2022/05/05 12:31:57;;;;;;;13.07;6.07;;;22.50;92.80;;;;;;5050994;28;20044;-78
2022/05/05 12:34:27;;;;;;;12.48;5.88;;;22.30;93.30;;;;;;5063719;28;20098;-77
2022/05/05 12:37:11;;;;;;;11.65;5.90;;;22.40;93.10;;;;;;5065745;28;20519;-78
2022/05/05 12:40:03;;;;;;;9.10;5.37;;;22.60;91.70;;;;;;5050495;28;20075;-76
2022/05/05 12:42:43;;;;;;;7.50;4.90;;;22.80;91.40;;;;;;5065295;28;20299;-77
2022/05/05 12:45:14;;;;;;;8.65;5.20;;;23.10;91.20;;;;;;5069629;28;20525;-80
2022/05/05 12:47:41;;;;;;;10.13;5.32;;;23.20;90.50;;;;;;5070345;28;20063;-79
2022/05/05 12:50:40;;;;;;;8.95;5.40;;;23.40;91.30;;;;;;5070387;28;20366;-81
2022/05/05 13:01:43;;;;;;;16.10;6.43;;;23.50;91.10;;;;;;5050912;28;20040;-79
2022/05/05 13:04:12;;;;;;;10.85;6.10;;;23.70;91.00;;;;;;5051613;28;20482;-80
2022/05/05 13:06:39;;;;;;;9.45;6.38;;;23.50;90.50;;;;;;5050754;28;20451;-86
2022/05/05 13:09:08;;;;;;;13.07;6.43;;;23.60;90.10;;;;;;5049567;28;20089;-85
2022/05/05 13:11:38;;;;;;;12.48;6.10;;;23.70;89.20;;;;;;5050711;28;20037;-85
2022/05/05 13:14:05;;;;;;;9.05;6.18;;;23.80;90.20;;;;;;5050359;28;20032;-77
2022/05/05 13:16:32;;;;;;;9.38;6.00;;;23.80;90.50;;;;;;5050489;28;20045;-76
2022/05/05 13:18:58;;;;;;;10.15;5.93;;;23.80;88.00;;;;;;5058426;28;20093;-79
2022/05/05 13:21:24;;;;;;;9.02;6.10;;;24.10;88.30;;;;;;5067465;28;20094;-80
2022/05/05 13:23:51;;;;;;;8.10;5.78;;;23.90;87.40;;;;;;5050139;28;20034;-79
2022/05/05 13:26:17;;;;;;;12.38;6.35;;;23.70;88.70;;;;;;5050213;28;20053;-83
2022/05/05 13:28:42;;;;;;;9.40;5.93;;;24.00;85.50;;;;;;5050202;28;20041;-83
2022/05/05 13:31:08;;;;;;;6.22;4.70;;;23.80;84.50;;;;;;5048567;28;20114;-82
2022/05/05 13:33:34;;;;;;;10.40;5.10;;;23.70;84.90;;;;;;5051142;28;20037;-84
2022/05/05 13:36:00;;;;;;;11.15;5.18;;;23.40;83.80;;;;;;5049968;28;20059;-80
2022/05/05 13:38:27;;;;;;;7.88;5.05;;;23.40;83.90;;;;;;5048489;28;20481;-79
2022/05/05 13:40:52;;;;;;;6.63;4.07;;;23.30;82.90;;;;;;5051336;28;20128;-79